aviador You're here:

KMSS Decoded Metar

MASSENA in NY, USA
Report Time2017-08-20 12:53:00
UTC Time2017-08-20 13:40:35
Flight Rules vfr VFR
Wind270° at 08 kt
W.Decomp.*RWY 27: 7.8 kt HW 1.9 kt RCW
RWY 23: 4.7 kt HW 6.5 kt RCW
W.Rank270° ranks 10
Current wind is below 270° avg. (8.8)
Visibility9999 m
Phenomena:N/A
Clouds:N/A
Expected CloudBase > 1,200 ft AGL from Temp-Dew spread
CeilingNone
Temp19°C (ISA +4)
Dew Point16°C (83% RH)
AAT18.1°C
QNH1017 hPa
Density Alt843 ft
Elevation217 ft
Report Wrong Elevation
Raw Report
METAR KMSS 201253Z AUTO 27008KT 10SM CLR 19/16 A3002 RMK AO2 SLP165
T01940161=

Extra information for KMSS:More info

Metar Taf Metar & Taf Last 4 Metars F.Rules Stats Wind Profile Meteogram Temp Stats Airport Information Weather charts Add Link Nearby VenuesMetar ALERT Operation Metar Decoded Social comments

AIRNAV info for KMSS